createdAt,value
2019-05-03T00:01:21.815Z,1.60
2019-05-03T00:03:51.890Z,1.43
2019-05-03T00:06:22.636Z,1.60
2019-05-03T00:08:52.606Z,1.60
2019-05-03T00:11:23.049Z,1.30
2019-05-03T00:13:53.669Z,1.17
2019-05-03T00:16:32.552Z,1.07
2019-05-03T00:19:03.375Z,1.50
2019-05-03T00:21:33.232Z,1.40
2019-05-03T00:24:03.964Z,1.20
2019-05-03T00:26:34.102Z,1.00
2019-05-03T00:29:03.953Z,1.30
2019-05-03T00:31:33.788Z,1.00
2019-05-03T00:34:07.767Z,1.10
2019-05-03T00:36:52.483Z,1.33
2019-05-03T00:39:27.395Z,0.90
2019-05-03T00:41:57.326Z,1.00
2019-05-03T00:44:51.580Z,1.40
2019-05-03T00:47:22.260Z,1.00
2019-05-03T00:49:52.186Z,0.97
2019-05-03T00:52:22.812Z,1.60
2019-05-03T00:54:53.063Z,1.67
2019-05-03T00:57:22.899Z,1.50
2019-05-03T00:59:52.920Z,1.20
2019-05-03T01:02:22.824Z,1.10
2019-05-03T01:04:53.217Z,1.20
2019-05-03T01:07:23.202Z,1.20
2019-05-03T01:09:53.424Z,1.40
2019-05-03T01:12:23.251Z,1.30
2019-05-03T01:14:54.795Z,1.20
2019-05-03T01:17:24.732Z,1.67
2019-05-03T01:19:54.967Z,1.57
2019-05-03T01:22:24.975Z,1.20
2019-05-03T01:24:54.959Z,1.70
2019-05-03T01:27:33.770Z,1.50
2019-05-03T01:30:03.829Z,1.33
2019-05-03T01:32:33.628Z,1.20
2019-05-03T01:35:03.892Z,1.43
2019-05-03T01:37:33.706Z,1.60
2019-05-03T01:40:04.129Z,1.57
2019-05-03T01:42:34.223Z,1.33
2019-05-03T01:45:04.574Z,1.30
2019-05-03T01:47:45.014Z,1.40
2019-05-03T01:50:22.907Z,1.40
2019-05-03T01:52:53.819Z,1.70
2019-05-03T01:55:25.757Z,1.60
2019-05-03T01:57:55.922Z,1.40
2019-05-03T02:00:27.294Z,2.00
2019-05-03T02:03:08.812Z,1.83
2019-05-03T02:05:47.558Z,1.70
2019-05-03T02:08:17.912Z,2.63
2019-05-03T02:10:47.794Z,1.63
2019-05-03T02:13:17.807Z,2.27
2019-05-03T02:15:48.071Z,2.00
2019-05-03T02:18:17.890Z,1.87
2019-05-03T02:20:47.776Z,1.57
2019-05-03T02:23:17.600Z,2.77
2019-05-03T02:25:55.951Z,2.07
2019-05-03T02:28:19.368Z,1.90
2019-05-03T02:30:49.164Z,1.70
2019-05-03T02:33:19.204Z,1.77
2019-05-03T02:35:49.084Z,2.03
2019-05-03T02:38:18.862Z,2.00
2019-05-03T02:40:48.908Z,2.73
2019-05-03T02:43:26.127Z,2.27
2019-05-03T02:46:16.635Z,2.00
2019-05-03T02:48:58.582Z,2.20
2019-05-03T02:51:29.314Z,2.03
2019-05-03T02:53:59.137Z,2.50
2019-05-03T02:56:29.296Z,2.37
2019-05-03T02:58:59.743Z,2.60
2019-05-03T03:01:30.183Z,2.50
2019-05-03T03:04:01.391Z,2.90
2019-05-03T03:06:33.016Z,2.20
2019-05-03T03:09:06.251Z,2.70
2019-05-03T03:11:38.815Z,2.43
2019-05-03T03:14:12.015Z,2.43
2019-05-03T03:16:45.482Z,2.50
2019-05-03T03:19:17.099Z,2.60
2019-05-03T03:21:49.124Z,2.90
2019-05-03T03:24:21.032Z,2.20
2019-05-03T03:26:52.163Z,3.10
2019-05-03T03:29:25.621Z,2.80
2019-05-03T03:32:19.429Z,2.83
2019-05-03T03:35:06.126Z,2.80
2019-05-03T03:37:35.265Z,2.40
2019-05-03T03:40:06.179Z,3.57
2019-05-03T03:42:38.231Z,2.87
2019-05-03T03:45:09.143Z,2.53
2019-05-03T03:47:39.960Z,2.40
2019-05-03T03:50:11.602Z,2.40
2019-05-03T03:52:45.109Z,2.50
2019-05-03T03:55:15.984Z,2.57
2019-05-03T03:57:46.962Z,2.37
2019-05-03T04:00:18.513Z,2.50
2019-05-03T04:02:48.752Z,3.10
2019-05-03T04:05:18.599Z,2.77
2019-05-03T04:07:48.867Z,2.70
2019-05-03T04:10:19.167Z,2.90
2019-05-03T04:12:49.693Z,2.30
2019-05-03T04:15:37.377Z,2.50
2019-05-03T04:18:18.667Z,3.00
2019-05-03T04:20:49.106Z,3.77
2019-05-03T04:23:20.711Z,4.33
2019-05-03T04:25:51.903Z,3.87
2019-05-03T04:28:22.340Z,3.87
2019-05-03T04:30:52.167Z,4.63
2019-05-03T04:33:21.958Z,4.27
2019-05-03T04:35:51.947Z,4.97
2019-05-03T04:38:21.682Z,4.60
2019-05-03T04:40:52.330Z,5.60
2019-05-03T04:43:22.104Z,5.50
2019-05-03T04:46:09.443Z,5.70
2019-05-03T04:48:39.560Z,6.07
2019-05-03T04:51:10.781Z,6.17
2019-05-03T04:53:45.441Z,6.73
2019-05-03T04:56:16.856Z,7.67
2019-05-03T04:58:47.275Z,7.27
2019-05-03T05:01:17.912Z,6.50
2019-05-03T05:03:48.210Z,7.97
2019-05-03T05:06:18.620Z,7.63
2019-05-03T05:08:48.893Z,8.33
2019-05-03T05:11:19.499Z,7.73
2019-05-03T05:13:50.619Z,9.50
2019-05-03T05:16:20.407Z,9.13
2019-05-03T05:18:56.023Z,7.23
2019-05-03T05:21:36.083Z,9.17
2019-05-03T05:24:06.647Z,8.63
2019-05-03T05:26:55.293Z,9.73
2019-05-03T05:29:27.435Z,10.30
2019-05-03T05:31:57.487Z,9.23
2019-05-03T05:34:27.358Z,9.70
2019-05-03T05:36:57.153Z,10.33
2019-05-03T05:39:28.095Z,9.93
2019-05-03T05:41:58.216Z,11.00
2019-05-03T05:44:28.242Z,9.77
2019-05-03T05:47:15.519Z,11.33
2019-05-03T05:50:07.068Z,10.17
2019-05-03T05:52:36.937Z,11.73
2019-05-03T05:55:32.119Z,11.07
2019-05-03T05:58:10.172Z,14.13
2019-05-03T06:00:46.286Z,12.20
2019-05-03T06:03:16.354Z,13.80
2019-05-03T06:05:46.134Z,13.03
2019-05-03T06:08:39.307Z,12.20
2019-05-03T06:11:21.002Z,13.03
2019-05-03T06:14:15.708Z,14.17
2019-05-03T06:16:52.959Z,13.23
2019-05-03T06:19:41.963Z,13.63
2019-05-03T06:22:22.599Z,13.60
2019-05-03T06:24:59.859Z,13.27
2019-05-03T06:27:36.544Z,14.30
2019-05-03T06:30:26.312Z,13.47
2019-05-03T06:32:56.175Z,14.70
2019-05-03T06:35:25.986Z,14.70
2019-05-03T06:37:55.816Z,13.43
2019-05-03T06:40:26.250Z,14.30
2019-05-03T06:43:08.471Z,15.47
2019-05-03T06:45:27.903Z,14.43
2019-05-03T06:47:58.110Z,15.10
2019-05-03T06:50:29.041Z,15.20
2019-05-03T06:53:04.345Z,14.90
2019-05-03T06:55:31.248Z,15.37
2019-05-03T06:58:01.463Z,14.30
2019-05-03T07:00:50.114Z,16.23
2019-05-03T07:03:28.881Z,17.23
2019-05-03T07:06:17.896Z,16.93
2019-05-03T07:09:05.214Z,17.10
2019-05-03T07:11:34.897Z,17.57
2019-05-03T07:14:05.241Z,18.07
2019-05-03T07:16:35.471Z,16.50
2019-05-03T07:19:05.294Z,18.30
2019-05-03T07:21:35.507Z,16.83
2019-05-03T07:24:05.592Z,17.40
2019-05-03T07:26:35.424Z,16.97
2019-05-03T07:29:05.638Z,19.47
2019-05-03T07:31:36.667Z,16.83
2019-05-03T07:34:06.532Z,18.10
2019-05-03T07:36:36.676Z,16.77
2019-05-03T07:39:08.859Z,17.87
2019-05-03T07:41:39.306Z,17.47
2019-05-03T07:44:09.351Z,17.23
2019-05-03T07:46:39.211Z,17.97
2019-05-03T07:49:09.006Z,18.03
2019-05-03T07:51:38.798Z,18.47
2019-05-03T07:54:08.779Z,16.67
2019-05-03T07:56:46.310Z,18.03
2019-05-03T07:59:16.711Z,16.73
2019-05-03T08:01:49.989Z,18.77
2019-05-03T08:04:20.051Z,18.63
2019-05-03T08:06:49.980Z,17.70
2019-05-03T08:09:19.827Z,20.00
2019-05-03T08:11:49.700Z,20.17
2019-05-03T08:14:19.941Z,19.33
2019-05-03T08:16:50.066Z,20.80
2019-05-03T08:19:23.326Z,19.00
2019-05-03T08:21:51.399Z,21.27
2019-05-03T08:24:22.120Z,20.10
2019-05-03T08:26:51.922Z,20.70
2019-05-03T08:29:22.131Z,20.20
2019-05-03T08:32:24.565Z,21.10
2019-05-03T08:35:15.097Z,20.17
2019-05-03T08:37:54.642Z,20.80
2019-05-03T08:40:25.962Z,24.20
2019-05-03T08:42:55.963Z,21.90
2019-05-03T08:45:26.562Z,23.03
2019-05-03T08:47:57.299Z,21.20
2019-05-03T08:50:27.114Z,20.97
2019-05-03T08:52:57.578Z,21.07
2019-05-03T08:55:27.758Z,21.30
2019-05-03T08:57:57.999Z,18.90
2019-05-03T09:00:29.488Z,18.50
2019-05-03T09:02:59.553Z,18.07
2019-05-03T09:05:29.331Z,17.40
2019-05-03T09:08:00.337Z,20.13
2019-05-03T09:10:43.058Z,17.97
2019-05-03T09:13:18.880Z,16.90
2019-05-03T09:15:50.046Z,18.67
2019-05-03T09:18:19.891Z,17.17
2019-05-03T09:20:51.674Z,17.40
2019-05-03T09:23:23.397Z,17.37
2019-05-03T09:25:54.795Z,17.40
2019-05-03T09:28:26.510Z,18.90
2019-05-03T09:30:56.161Z,17.03
2019-05-03T09:33:26.876Z,17.30
2019-05-03T09:35:57.114Z,17.30
2019-05-03T09:38:26.979Z,16.83
2019-05-03T09:40:56.785Z,17.13
2019-05-03T09:43:27.150Z,14.10
2019-05-03T09:45:57.254Z,12.20
2019-05-03T09:48:27.491Z,11.77
2019-05-03T09:50:57.278Z,9.33
2019-05-03T09:53:30.158Z,8.97
2019-05-03T09:56:00.382Z,8.50
2019-05-03T09:58:30.271Z,7.70
2019-05-03T10:01:00.738Z,7.97
2019-05-03T10:03:31.366Z,7.73
2019-05-03T10:06:01.139Z,7.20
2019-05-03T10:08:31.825Z,7.90
2019-05-03T10:11:10.924Z,6.90
2019-05-03T10:13:42.041Z,6.03
2019-05-03T10:16:12.002Z,7.13
2019-05-03T10:18:42.095Z,8.23
2019-05-03T10:21:11.979Z,8.00
2019-05-03T10:23:42.491Z,7.73
2019-05-03T10:26:14.676Z,7.10
2019-05-03T10:28:45.108Z,6.90
2019-05-03T10:31:15.836Z,5.77
2019-05-03T10:33:50.512Z,5.40
2019-05-03T10:36:20.260Z,4.97
2019-05-03T10:38:50.121Z,4.20
2019-05-03T10:41:20.745Z,3.10
2019-05-03T10:43:51.544Z,3.10
2019-05-03T10:46:21.558Z,3.80
2019-05-03T10:48:51.330Z,5.00
2019-05-03T10:51:22.285Z,5.57
2019-05-03T10:53:57.466Z,5.70
2019-05-03T10:56:55.891Z,5.83
2019-05-03T10:59:26.704Z,6.07
2019-05-03T11:02:15.680Z,5.97
2019-05-03T11:04:46.329Z,4.23
2019-05-03T11:07:16.100Z,4.60
2019-05-03T11:09:49.738Z,4.40
2019-05-03T11:12:18.259Z,5.50
2019-05-03T11:14:49.205Z,5.87
2019-05-03T11:17:19.470Z,6.00
2019-05-03T11:19:49.614Z,5.43
2019-05-03T11:22:20.294Z,5.60
2019-05-03T11:24:50.418Z,5.50
2019-05-03T11:27:25.771Z,6.30
2019-05-03T11:29:55.706Z,6.90
2019-05-03T11:32:55.477Z,6.33
2019-05-03T11:35:35.119Z,7.60
2019-05-03T11:38:11.788Z,7.30
2019-05-03T11:40:41.631Z,8.00
2019-05-03T11:43:11.478Z,5.40
2019-05-03T11:45:47.596Z,4.83
2019-05-03T11:48:18.311Z,4.90
2019-05-03T11:50:48.642Z,3.60
2019-05-03T11:53:18.783Z,3.43
2019-05-03T11:55:48.666Z,4.10
2019-05-03T11:58:21.270Z,4.50
2019-05-03T12:01:14.979Z,3.50
2019-05-03T12:03:39.615Z,2.70
2019-05-03T12:06:09.823Z,2.57
2019-05-03T12:08:40.152Z,3.03
2019-05-03T12:11:10.708Z,4.10
2019-05-03T12:13:40.814Z,3.40
2019-05-03T12:16:17.362Z,4.17
2019-05-03T12:18:50.084Z,4.63
2019-05-03T12:21:18.069Z,4.97
2019-05-03T12:23:48.048Z,3.83
2019-05-03T12:26:19.476Z,5.30
2019-05-03T12:28:50.119Z,5.13
2019-05-03T12:31:33.505Z,6.50
2019-05-03T12:33:52.048Z,7.43
2019-05-03T12:36:21.871Z,7.50
2019-05-03T12:38:54.827Z,10.50
2019-05-03T12:41:25.516Z,10.13
2019-05-03T12:43:56.053Z,11.43
2019-05-03T12:46:26.546Z,12.43
2019-05-03T12:48:56.666Z,12.77
2019-05-03T12:51:26.511Z,13.00
2019-05-03T12:53:56.284Z,13.60
2019-05-03T12:56:32.777Z,14.57
2019-05-03T12:59:05.740Z,15.07
2019-05-03T13:01:57.982Z,15.43
2019-05-03T13:04:37.891Z,14.23
2019-05-03T13:07:14.833Z,15.00
2019-05-03T13:09:45.350Z,15.73
2019-05-03T13:12:17.710Z,13.03
2019-05-03T13:14:48.253Z,14.73
2019-05-03T13:17:35.916Z,13.00
2019-05-03T13:20:12.356Z,12.07
2019-05-03T13:22:42.713Z,12.33
2019-05-03T13:25:15.551Z,12.07
2019-05-03T13:27:46.256Z,9.83
2019-05-03T13:30:18.720Z,10.10
2019-05-03T13:32:48.537Z,8.70
2019-05-03T13:35:19.337Z,9.70
2019-05-03T13:37:49.084Z,9.30
2019-05-03T13:40:19.767Z,10.17
2019-05-03T13:42:57.725Z,10.97
2019-05-03T13:45:24.604Z,10.20
2019-05-03T13:47:55.280Z,11.27
2019-05-03T13:50:25.217Z,11.03
2019-05-03T13:52:55.936Z,10.53
2019-05-03T13:55:26.077Z,9.20
2019-05-03T13:57:55.826Z,10.20
2019-05-03T14:00:25.954Z,9.00
2019-05-03T14:02:56.471Z,8.50
2019-05-03T14:05:26.819Z,7.30
2019-05-03T14:07:56.605Z,7.10
2019-05-03T14:10:27.154Z,7.33
2019-05-03T14:12:57.218Z,7.60
2019-05-03T14:15:27.041Z,7.77
2019-05-03T14:17:57.357Z,7.03
2019-05-03T14:20:44.616Z,7.30
2019-05-03T14:23:15.355Z,6.97
2019-05-03T14:25:46.205Z,7.27
2019-05-03T14:28:16.454Z,6.13
2019-05-03T14:30:46.790Z,6.40
2019-05-03T14:33:16.683Z,6.70
2019-05-03T14:35:47.278Z,7.57
2019-05-03T14:38:17.606Z,7.40
2019-05-03T14:40:48.059Z,7.53
2019-05-03T14:43:18.391Z,7.50
2019-05-03T14:45:48.962Z,7.70
2019-05-03T14:48:19.967Z,7.03
2019-05-03T14:50:49.786Z,7.90
2019-05-03T14:53:20.317Z,9.10
2019-05-03T14:55:56.267Z,7.00
2019-05-03T14:58:45.551Z,7.53
2019-05-03T15:01:34.721Z,7.13
2019-05-03T15:04:05.879Z,7.30
2019-05-03T15:06:36.122Z,7.73
2019-05-03T15:09:08.068Z,7.37
2019-05-03T15:11:37.963Z,7.47
2019-05-03T15:14:07.698Z,7.10
2019-05-03T15:16:37.673Z,7.30
2019-05-03T15:19:07.731Z,7.33
2019-05-03T15:21:37.629Z,7.30
2019-05-03T15:24:07.810Z,6.87
2019-05-03T15:26:37.686Z,6.50
2019-05-03T15:29:08.490Z,7.17
2019-05-03T15:31:38.692Z,6.60
2019-05-03T15:34:08.433Z,7.30
2019-05-03T15:36:38.590Z,7.90
2019-05-03T15:39:09.618Z,7.30
2019-05-03T15:41:39.862Z,9.00
2019-05-03T15:44:37.622Z,8.50
2019-05-03T15:47:15.386Z,7.80
2019-05-03T15:49:45.197Z,8.50
2019-05-03T15:52:15.278Z,7.63
2019-05-03T15:54:45.161Z,7.70
2019-05-03T15:57:15.736Z,7.17
2019-05-03T15:59:45.671Z,8.80
2019-05-03T16:02:15.611Z,7.67
2019-05-03T16:04:48.668Z,7.77
2019-05-03T16:07:18.858Z,7.93
2019-05-03T16:09:48.827Z,8.53
2019-05-03T16:12:19.367Z,6.80
2019-05-03T16:14:49.221Z,7.60
2019-05-03T16:17:19.058Z,7.43
2019-05-03T16:19:48.830Z,7.70
2019-05-03T16:22:19.028Z,7.40
2019-05-03T16:24:50.404Z,7.20
2019-05-03T16:27:42.442Z,8.60
2019-05-03T16:30:30.226Z,8.33
2019-05-03T16:33:00.391Z,8.10
2019-05-03T16:35:30.282Z,8.40
2019-05-03T16:38:00.070Z,8.47
2019-05-03T16:40:30.214Z,7.53
2019-05-03T16:43:00.742Z,7.73
2019-05-03T16:45:30.960Z,7.80
2019-05-03T16:48:01.233Z,7.23
2019-05-03T16:50:31.375Z,7.97
2019-05-03T16:53:01.305Z,8.60
2019-05-03T16:55:31.418Z,9.07
2019-05-03T16:58:01.584Z,8.20
2019-05-03T17:00:32.264Z,8.80
2019-05-03T17:03:02.202Z,8.83
2019-05-03T17:05:50.539Z,7.90
2019-05-03T17:08:28.612Z,8.23
2019-05-03T17:11:00.291Z,9.10
2019-05-03T17:13:30.100Z,9.43
2019-05-03T17:16:00.047Z,9.17
2019-05-03T17:18:30.287Z,8.10
2019-05-03T17:21:00.999Z,8.40
2019-05-03T17:23:30.784Z,9.40
2019-05-03T17:26:00.720Z,9.10
2019-05-03T17:28:30.615Z,9.30
2019-05-03T17:31:00.539Z,10.57
2019-05-03T17:33:31.090Z,8.63
2019-05-03T17:36:01.180Z,8.60
2019-05-03T17:38:44.279Z,9.73
2019-05-03T17:41:25.558Z,9.50
2019-05-03T17:44:00.063Z,7.77
2019-05-03T17:46:29.822Z,10.30
2019-05-03T17:48:59.851Z,10.20
2019-05-03T17:51:57.618Z,9.67
2019-05-03T17:54:54.215Z,9.40
2019-05-03T17:57:29.095Z,9.23
2019-05-03T18:00:08.010Z,9.20
2019-05-03T18:02:45.120Z,9.53
2019-05-03T18:05:34.362Z,9.23
2019-05-03T18:08:41.164Z,8.57
2019-05-03T18:11:17.598Z,9.60
2019-05-03T18:13:47.638Z,8.87
2019-05-03T18:16:17.407Z,8.50
2019-05-03T18:18:47.508Z,9.30
2019-05-03T18:21:17.340Z,9.53
2019-05-03T18:23:47.262Z,9.37
2019-05-03T18:26:17.429Z,11.20
2019-05-03T18:28:47.672Z,8.90
2019-05-03T18:31:17.930Z,9.70
2019-05-03T18:33:48.128Z,10.53
2019-05-03T18:36:18.438Z,10.30
2019-05-03T18:38:48.283Z,10.80
2019-05-03T18:41:18.513Z,10.80
2019-05-03T18:44:00.372Z,11.20
2019-05-03T18:46:33.814Z,11.10
2019-05-03T18:49:05.157Z,11.37
2019-05-03T18:51:36.038Z,11.30
2019-05-03T18:54:07.318Z,11.30
2019-05-03T18:56:37.759Z,11.80
2019-05-03T18:59:07.821Z,11.40
2019-05-03T19:01:38.014Z,10.70
2019-05-03T19:04:15.691Z,11.13
2019-05-03T19:06:45.520Z,11.73
2019-05-03T19:09:37.238Z,11.10
2019-05-03T19:12:26.417Z,12.47
2019-05-03T19:14:58.066Z,10.93
2019-05-03T19:17:54.729Z,12.57
2019-05-03T19:20:26.942Z,11.93
2019-05-03T19:22:59.075Z,11.47
2019-05-03T19:25:43.341Z,11.20
2019-05-03T19:28:07.856Z,12.50
2019-05-03T19:30:38.415Z,12.40
2019-05-03T19:33:09.903Z,13.77
2019-05-03T19:35:44.427Z,13.60
2019-05-03T19:38:16.662Z,14.50
2019-05-03T19:40:48.308Z,12.47
2019-05-03T19:43:19.562Z,14.10
2019-05-03T19:45:50.739Z,12.17
2019-05-03T19:48:25.577Z,13.17
2019-05-03T19:50:57.940Z,13.00
2019-05-03T19:53:48.833Z,12.40
2019-05-03T19:56:22.943Z,12.53
2019-05-03T19:58:57.493Z,12.03
2019-05-03T20:01:40.368Z,11.20
2019-05-03T20:04:43.391Z,13.27
2019-05-03T20:07:41.595Z,12.20
2019-05-03T20:10:11.821Z,13.57
2019-05-03T20:12:43.213Z,12.60
2019-05-03T20:15:14.503Z,13.97
2019-05-03T20:17:57.509Z,13.70
2019-05-03T20:20:21.862Z,12.90
2019-05-03T20:22:54.916Z,12.53
2019-05-03T20:25:25.959Z,11.77
2019-05-03T20:27:56.630Z,12.47
2019-05-03T20:30:27.307Z,13.57
2019-05-03T20:32:58.194Z,13.27
2019-05-03T20:35:29.070Z,13.57
2019-05-03T20:37:59.789Z,11.47
2019-05-03T20:40:30.790Z,12.23
2019-05-03T20:43:08.490Z,12.03
2019-05-03T20:46:10.675Z,13.40
2019-05-03T20:48:44.754Z,10.63
2019-05-03T20:51:15.523Z,11.50
2019-05-03T20:53:46.736Z,10.50
2019-05-03T20:56:16.848Z,12.50
2019-05-03T20:58:47.330Z,12.10
2019-05-03T21:01:17.614Z,11.73
2019-05-03T21:03:49.460Z,12.30
2019-05-03T21:06:32.454Z,11.67
2019-05-03T21:08:56.161Z,12.57
2019-05-03T21:11:25.493Z,12.07
2019-05-03T21:14:01.318Z,11.57
2019-05-03T21:16:54.542Z,11.43
2019-05-03T21:19:44.680Z,11.50
2019-05-03T21:22:20.627Z,12.30
2019-05-03T21:25:24.973Z,11.83
2019-05-03T21:27:55.613Z,12.27
2019-05-03T21:30:26.231Z,12.70
2019-05-03T21:32:56.053Z,13.87
2019-05-03T21:35:38.680Z,13.10
2019-05-03T21:37:57.558Z,12.77
2019-05-03T21:40:27.430Z,12.93
2019-05-03T21:42:57.245Z,13.90
2019-05-03T21:45:33.010Z,12.00
2019-05-03T21:48:16.788Z,13.70
2019-05-03T21:50:47.060Z,12.43
2019-05-03T21:53:17.915Z,13.40
2019-05-03T21:55:48.374Z,13.03
2019-05-03T21:58:18.634Z,14.80
2019-05-03T22:01:05.108Z,15.30
2019-05-03T22:03:35.527Z,15.43
2019-05-03T22:06:05.670Z,13.87
2019-05-03T22:08:36.571Z,14.80
2019-05-03T22:11:06.369Z,14.53
2019-05-03T22:13:36.960Z,14.20
2019-05-03T22:16:17.254Z,14.93
2019-05-03T22:18:47.022Z,13.23
2019-05-03T22:21:23.854Z,13.67
2019-05-03T22:24:15.651Z,12.70
2019-05-03T22:26:51.835Z,13.60
2019-05-03T22:29:21.611Z,13.43
2019-05-03T22:31:51.924Z,14.43
2019-05-03T22:34:21.739Z,13.57
2019-05-03T22:36:51.970Z,14.90
2019-05-03T22:39:22.210Z,15.60
2019-05-03T22:41:52.454Z,14.10
2019-05-03T22:44:22.400Z,13.00
2019-05-03T22:46:52.442Z,15.90
2019-05-03T22:49:22.523Z,13.73
2019-05-03T22:51:54.348Z,13.07
2019-05-03T22:54:24.694Z,16.23
2019-05-03T22:56:55.460Z,16.47
2019-05-03T22:59:26.593Z,16.20
2019-05-03T23:01:56.541Z,16.00
2019-05-03T23:04:26.784Z,16.00
2019-05-03T23:06:56.619Z,14.27
2019-05-03T23:09:27.206Z,14.77
2019-05-03T23:11:57.383Z,18.43
2019-05-03T23:14:27.638Z,18.27
2019-05-03T23:16:57.799Z,17.77
2019-05-03T23:19:27.599Z,15.77
2019-05-03T23:22:06.160Z,16.77
2019-05-03T23:24:35.993Z,17.97
2019-05-03T23:27:06.189Z,16.80
2019-05-03T23:29:36.001Z,16.60
2019-05-03T23:32:05.949Z,18.10
2019-05-03T23:34:35.755Z,18.33
2019-05-03T23:37:05.693Z,17.00
2019-05-03T23:39:35.510Z,16.97
2019-05-03T23:42:06.158Z,18.53
2019-05-03T23:44:36.462Z,18.00
2019-05-03T23:47:15.510Z,17.93
2019-05-03T23:49:45.344Z,17.87
2019-05-03T23:52:48.954Z,18.90
2019-05-03T23:55:30.690Z,18.10
2019-05-03T23:58:00.569Z,17.33
